Time,TemperatureF,DewpointF,PressureIn,WindDirection,WindDirectionDegrees,WindSpeedMPH,WindSpeedGustMPH,Humidity,HourlyPrecipIn,Conditions,Clouds,dailyrainin,SoftwareType,DateUTC
2013-06-20 00:04:00,75.0,66.0,29.78,SE,128,15.0,19.0,74,0.00,,,0.00,weatherlink.com 1.10,2013-06-20 06:04:00,
2013-06-20 00:19:00,75.2,66.0,29.78,SSE,152,8.0,19.0,72,0.00,,,0.00,weatherlink.com 1.10,2013-06-20 06:19:00,
2013-06-20 00:34:00,75.0,65.0,29.79,SSE,156,4.0,16.0,71,0.00,,,0.00,weatherlink.com 1.10,2013-06-20 06:34:00,
2013-06-20 00:49:00,74.8,64.0,29.79,SE,137,11.0,17.0,70,0.00,,,0.00,weatherlink.com 1.10,2013-06-20 06:49:00,
2013-06-20 01:04:00,74.7,64.0,29.79,SE,146,8.0,13.0,69,0.00,,,0.00,weatherlink.com 1.10,2013-06-20 07:04:00,
2013-06-20 01:19:00,74.5,64.0,29.80,SSE,153,3.0,11.0,69,0.00,,,0.00,weatherlink.com 1.10,2013-06-20 07:19:00,
2013-06-20 01:34:00,74.1,64.0,29.80,SSE,149,0.0,10.0,71,0.00,,,0.00,weatherlink.com 1.10,2013-06-20 07:34:00,
2013-06-20 01:49:00,73.5,64.0,29.80,SSE,155,4.0,10.0,72,0.00,,,0.00,weatherlink.com 1.10,2013-06-20 07:49:00,
2013-06-20 02:04:00,73.1,64.0,29.80,SE,142,7.0,11.0,73,0.00,,,0.00,weatherlink.com 1.10,2013-06-20 08:04:00,
2013-06-20 02:19:00,72.6,64.0,29.80,SE,144,3.0,9.0,75,0.00,,,0.00,weatherlink.com 1.10,2013-06-20 08:19:00,
2013-06-20 02:34:00,72.1,64.0,29.80,SE,136,0.0,9.0,76,0.00,,,0.00,weatherlink.com 1.10,2013-06-20 08:34:00,
2013-06-20 02:49:00,71.6,64.0,29.81,SE,130,3.0,8.0,78,0.00,,,0.00,weatherlink.com 1.10,2013-06-20 08:49:00,
2013-06-20 03:04:00,71.2,64.0,29.81,SE,137,5.0,9.0,79,0.00,,,0.00,weatherlink.com 1.10,2013-06-20 09:04:00,
2013-06-20 03:19:00,70.8,64.0,29.81,SE,137,7.0,8.0,79,0.00,,,0.00,weatherlink.com 1.10,2013-06-20 09:19:00,
2013-06-20 03:34:00,70.7,64.0,29.81,SE,145,0.0,9.0,80,0.00,,,0.00,weatherlink.com 1.10,2013-06-20 09:34:00,
2013-06-20 03:49:00,70.5,64.0,29.81,SE,134,0.0,6.0,80,0.00,,,0.00,weatherlink.com 1.10,2013-06-20 09:49:00,
2013-06-20 04:04:00,70.3,64.0,29.82,SE,133,0.0,9.0,81,0.00,,,0.00,weatherlink.com 1.10,2013-06-20 10:04:00,
2013-06-20 04:19:00,70.5,64.0,29.82,SE,125,0.0,10.0,81,0.00,,,0.00,weatherlink.com 1.10,2013-06-20 10:19:00,
2013-06-20 04:34:00,70.4,64.0,29.82,SE,136,6.0,11.0,81,0.00,,,0.00,weatherlink.com 1.10,2013-06-20 10:34:00,
2013-06-20 04:49:00,70.5,65.0,29.82,SSE,156,4.0,13.0,82,0.00,,,0.00,weatherlink.com 1.10,2013-06-20 10:49:00,
2013-06-20 05:04:00,70.6,65.0,29.83,SE,143,7.0,11.0,81,0.00,,,0.00,weatherlink.com 1.10,2013-06-20 11:04:00,
2013-06-20 05:19:00,70.6,65.0,29.84,SE,141,3.0,11.0,82,0.00,,,0.00,weatherlink.com 1.10,2013-06-20 11:19:00,
2013-06-20 05:34:00,70.6,65.0,29.84,SE,141,6.0,12.0,82,0.00,,,0.00,weatherlink.com 1.10,2013-06-20 11:34:00,
2013-06-20 05:49:00,70.8,65.0,29.85,SSE,150,2.0,11.0,82,0.00,,,0.00,weatherlink.com 1.10,2013-06-20 11:49:00,
2013-06-20 06:04:00,71.0,65.0,29.85,SE,143,5.0,10.0,82,0.00,,,0.00,weatherlink.com 1.10,2013-06-20 12:04:00,
2013-06-20 06:19:00,71.6,66.0,29.86,SE,141,7.0,10.0,81,0.00,,,0.00,weatherlink.com 1.10,2013-06-20 12:19:00,
2013-06-20 06:34:00,72.2,66.0,29.86,SSE,155,3.0,11.0,80,0.00,,,0.00,weatherlink.com 1.10,2013-06-20 12:34:00,
2013-06-20 06:49:00,72.9,66.0,29.86,SSE,152,4.0,12.0,79,0.00,,,0.00,weatherlink.com 1.10,2013-06-20 12:49:00,
2013-06-20 07:04:00,74.0,66.0,29.86,SSE,166,4.0,13.0,77,0.00,,,0.00,weatherlink.com 1.10,2013-06-20 13:04:00,
2013-06-20 07:19:00,75.2,67.0,29.86,SE,146,6.0,10.0,75,0.00,,,0.00,weatherlink.com 1.10,2013-06-20 13:19:00,
2013-06-20 07:34:00,76.3,67.0,29.86,SSE,168,3.0,11.0,73,0.00,,,0.00,weatherlink.com 1.10,2013-06-20 13:34:00,
2013-06-20 07:50:00,77.2,68.0,29.86,SSE,155,2.0,16.0,72,0.00,,,0.00,weatherlink.com 1.10,2013-06-20 13:50:00,
2013-06-20 08:05:00,78.2,68.0,29.87,SE,142,8.0,12.0,71,0.00,,,0.00,weatherlink.com 1.10,2013-06-20 14:05:00,
2013-06-20 08:20:00,79.1,68.0,29.87,SSE,154,7.0,14.0,69,0.00,,,0.00,weatherlink.com 1.10,2013-06-20 14:20:00,
2013-06-20 08:35:00,80.1,69.0,29.88,South,188,4.0,12.0,68,0.00,,,0.00,weatherlink.com 1.10,2013-06-20 14:35:00,
2013-06-20 08:50:00,80.9,69.0,29.88,SSE,168,1.0,12.0,67,0.00,,,0.00,weatherlink.com 1.10,2013-06-20 14:50:00,
2013-06-20 09:05:00,81.6,70.0,29.88,South,191,6.0,13.0,67,0.00,,,0.00,weatherlink.com 1.10,2013-06-20 15:05:00,
2013-06-20 09:20:00,82.8,69.0,29.88,South,172,3.0,16.0,63,0.00,,,0.00,weatherlink.com 1.10,2013-06-20 15:20:00,
2013-06-20 09:35:00,83.2,69.0,29.88,South,179,2.0,14.0,63,0.00,,,0.00,weatherlink.com 1.10,2013-06-20 15:35:00,
2013-06-20 09:50:00,84.0,71.0,29.88,South,170,2.0,12.0,64,0.00,,,0.00,weatherlink.com 1.10,2013-06-20 15:50:00,
2013-06-20 10:05:00,85.5,70.0,29.88,SSW,199,7.0,16.0,60,0.00,,,0.00,weatherlink.com 1.10,2013-06-20 16:05:00,
2013-06-20 10:20:00,86.1,70.0,29.88,SSW,204,5.0,15.0,59,0.00,,,0.00,weatherlink.com 1.10,2013-06-20 16:20:00,
2013-06-20 10:35:00,86.3,71.0,29.88,South,170,7.0,15.0,60,0.00,,,0.00,weatherlink.com 1.10,2013-06-20 16:35:00,
2013-06-20 10:50:00,87.1,71.0,29.88,South,185,4.0,13.0,59,0.00,,,0.00,weatherlink.com 1.10,2013-06-20 16:50:00,
2013-06-20 11:05:00,87.4,71.0,29.88,South,172,7.0,19.0,58,0.00,,,0.00,weatherlink.com 1.10,2013-06-20 17:05:00,
2013-06-20 11:20:00,87.9,71.0,29.87,South,179,5.0,17.0,57,0.00,,,0.00,weatherlink.com 1.10,2013-06-20 17:20:00,
2013-06-20 11:35:00,88.6,71.0,29.87,South,182,8.0,18.0,56,0.00,,,0.00,weatherlink.com 1.10,2013-06-20 17:35:00,
2013-06-20 11:50:00,89.2,70.0,29.87,SSW,196,6.0,17.0,54,0.00,,,0.00,weatherlink.com 1.10,2013-06-20 17:50:00,
2013-06-20 12:05:00,89.9,71.0,29.86,SSW,194,8.0,21.0,54,0.00,,,0.00,weatherlink.com 1.10,2013-06-20 18:05:00,
2013-06-20 12:20:00,90.7,72.0,29.85,SSE,161,6.0,21.0,54,0.00,,,0.00,weatherlink.com 1.10,2013-06-20 18:20:00,
2013-06-20 12:35:00,91.1,71.0,29.85,SSW,204,15.0,20.0,52,0.00,,,0.00,weatherlink.com 1.10,2013-06-20 18:35:00,
2013-06-20 12:50:00,91.8,71.0,29.85,South,182,9.0,18.0,50,0.00,,,0.00,weatherlink.com 1.10,2013-06-20 18:50:00,
2013-06-20 13:05:00,92.2,70.0,29.85,SSE,156,15.0,19.0,48,0.00,,,0.00,weatherlink.com 1.10,2013-06-20 19:05:00,
2013-06-20 13:20:00,92.3,69.0,29.84,South,177,7.0,22.0,47,0.00,,,0.00,weatherlink.com 1.10,2013-06-20 19:20:00,
2013-06-20 13:35:00,93.2,69.0,29.84,South,181,15.0,21.0,45,0.00,,,0.00,weatherlink.com 1.10,2013-06-20 19:35:00,
2013-06-20 13:50:00,93.8,67.0,29.83,SSW,198,11.0,22.0,42,0.00,,,0.00,weatherlink.com 1.10,2013-06-20 19:50:00,
2013-06-20 14:05:00,94.3,69.0,29.82,SSE,168,9.0,23.0,43,0.00,,,0.00,weatherlink.com 1.10,2013-06-20 20:05:00,
2013-06-20 14:20:00,94.6,67.0,29.82,South,181,10.0,20.0,40,0.00,,,0.00,weatherlink.com 1.10,2013-06-20 20:20:00,
2013-06-20 14:35:00,94.7,65.0,29.82,South,172,10.0,29.0,38,0.00,,,0.00,weatherlink.com 1.10,2013-06-20 20:35:00,
2013-06-20 14:50:00,94.4,67.0,29.80,SE,137,13.0,24.0,40,0.00,,,0.00,weatherlink.com 1.10,2013-06-20 20:50:00,
2013-06-20 15:06:00,94.7,66.0,29.80,SSE,165,4.0,22.0,39,0.00,,,0.00,weatherlink.com 1.10,2013-06-20 21:06:00,
2013-06-20 15:21:00,95.5,65.0,29.80,SSE,165,5.0,24.0,36,0.00,,,0.00,weatherlink.com 1.10,2013-06-20 21:21:00,
2013-06-20 15:36:00,95.3,66.0,29.79,SSE,163,9.0,23.0,38,0.00,,,0.00,weatherlink.com 1.10,2013-06-20 21:36:00,
2013-06-20 15:51:00,95.5,65.0,29.79,South,189,7.0,31.0,36,0.00,,,0.00,weatherlink.com 1.10,2013-06-20 21:51:00,
2013-06-20 16:06:00,95.6,62.0,29.78,South,176,18.0,23.0,33,0.00,,,0.00,weatherlink.com 1.10,2013-06-20 22:06:00,
2013-06-20 16:21:00,95.5,65.0,29.78,SSE,167,14.0,19.0,36,0.00,,,0.00,weatherlink.com 1.10,2013-06-20 22:21:00,
2013-06-20 16:36:00,95.5,63.0,29.77,SSW,199,11.0,25.0,34,0.00,,,0.00,weatherlink.com 1.10,2013-06-20 22:36:00,
2013-06-20 16:51:00,95.6,63.0,29.76,South,185,16.0,22.0,34,0.00,,,0.00,weatherlink.com 1.10,2013-06-20 22:51:00,
2013-06-20 17:06:00,95.6,63.0,29.76,SSE,164,12.0,20.0,34,0.00,,,0.00,weatherlink.com 1.10,2013-06-20 23:06:00,
2013-06-20 17:21:00,95.2,64.0,29.76,SSE,153,15.0,22.0,35,0.00,,,0.00,weatherlink.com 1.10,2013-06-20 23:21:00,
2013-06-20 17:36:00,95.0,63.0,29.76,SSE,168,6.0,22.0,34,0.00,,,0.00,weatherlink.com 1.10,2013-06-20 23:36:00,
2013-06-20 17:51:00,94.8,63.0,29.76,SSW,193,6.0,22.0,35,0.00,,,0.00,weatherlink.com 1.10,2013-06-20 23:51:00,
2013-06-20 18:06:00,94.3,63.0,29.76,South,189,9.0,18.0,36,0.00,,,0.00,weatherlink.com 1.10,2013-06-21 00:06:00,
2013-06-20 18:21:00,94.0,63.0,29.77,South,185,7.0,22.0,36,0.00,,,0.00,weatherlink.com 1.10,2013-06-21 00:21:00,
2013-06-20 18:36:00,93.4,62.0,29.78,SSW,209,7.0,21.0,35,0.00,,,0.00,weatherlink.com 1.10,2013-06-21 00:36:00,
2013-06-20 18:51:00,92.9,62.0,29.78,SSE,154,6.0,19.0,36,0.00,,,0.00,weatherlink.com 1.10,2013-06-21 00:51:00,
2013-06-20 19:06:00,92.3,62.0,29.79,South,182,3.0,20.0,37,0.00,,,0.00,weatherlink.com 1.10,2013-06-21 01:06:00,
2013-06-20 19:21:00,91.7,63.0,29.79,South,185,5.0,15.0,38,0.00,,,0.00,weatherlink.com 1.10,2013-06-21 01:21:00,
2013-06-20 19:36:00,91.0,63.0,29.80,South,180,5.0,11.0,39,0.00,,,0.00,weatherlink.com 1.10,2013-06-21 01:36:00,
2013-06-20 19:51:00,90.2,63.0,29.81,South,173,3.0,6.0,40,0.00,,,0.00,weatherlink.com 1.10,2013-06-21 01:51:00,
2013-06-20 20:06:00,89.2,63.0,29.82,SSE,153,1.0,5.0,42,0.00,,,0.00,weatherlink.com 1.10,2013-06-21 02:06:00,
2013-06-20 20:21:00,88.1,64.0,29.82,SSE,157,0.0,4.0,44,0.00,,,0.00,weatherlink.com 1.10,2013-06-21 02:21:00,
2013-06-20 20:36:00,87.2,64.0,29.83,SSE,165,0.0,5.0,46,0.00,,,0.00,weatherlink.com 1.10,2013-06-21 02:36:00,
2013-06-20 20:51:00,86.5,64.0,29.84,South,176,2.0,4.0,47,0.00,,,0.00,weatherlink.com 1.10,2013-06-21 02:51:00,
2013-06-20 21:06:00,86.3,64.0,29.85,South,184,0.0,4.0,48,0.00,,,0.00,weatherlink.com 1.10,2013-06-21 03:06:00,
2013-06-20 21:21:00,86.0,64.0,29.86,SSW,192,0.0,6.0,48,0.00,,,0.00,weatherlink.com 1.10,2013-06-21 03:21:00,
2013-06-20 21:36:00,85.5,64.0,29.87,SSW,194,2.0,4.0,49,0.00,,,0.00,weatherlink.com 1.10,2013-06-21 03:36:00,
2013-06-20 21:51:00,84.9,64.0,29.86,South,185,0.0,7.0,50,0.00,,,0.00,weatherlink.com 1.10,2013-06-21 03:51:00,
2013-06-20 22:06:00,84.5,64.0,29.86,SSE,160,6.0,6.0,51,0.00,,,0.00,weatherlink.com 1.10,2013-06-21 04:06:00,
2013-06-20 22:21:00,83.7,65.0,29.88,WSW,245,7.0,10.0,53,0.00,,,0.00,weatherlink.com 1.10,2013-06-21 04:21:00,
2013-06-20 22:36:00,84.1,65.0,29.87,SW,222,3.0,10.0,52,0.00,,,0.00,weatherlink.com 1.10,2013-06-21 04:36:00,
2013-06-20 22:51:00,84.6,64.0,29.87,WSW,243,2.0,12.0,50,0.00,,,0.00,weatherlink.com 1.10,2013-06-21 04:51:00,
2013-06-20 23:06:00,83.5,62.0,29.87,WSW,245,5.0,9.0,48,0.00,,,0.00,weatherlink.com 1.10,2013-06-21 05:06:00,
2013-06-20 23:21:00,82.4,60.0,29.87,SW,226,4.0,10.0,47,0.00,,,0.00,weatherlink.com 1.10,2013-06-21 05:21:00,
2013-06-20 23:36:00,81.4,60.0,29.86,SSW,212,2.0,8.0,49,0.00,,,0.00,weatherlink.com 1.10,2013-06-21 05:36:00,
2013-06-20 23:51:00,80.6,60.0,29.86,SSW,197,1.0,3.0,50,0.00,,,0.00,weatherlink.com 1.10,2013-06-21 05:51:00,